Time;durP1;ratioP1;P1;durP2;ratioP2;P2;SDS_P1;SDS_P2;PMS_P1;PMS_P2;Temp;Humidity;BMP_temperature;BMP_pressure;BME280_temperature;BME280_humidity;BME280_pressure;Samples;Min_cycle;Max_cycle;Signal;HPM_P1;HPM_P2
2022/11/16 00:01:17;;;;;;;0.40;0.40;;;9.60;99.90;;;;;;5115897;28;20439;-77
2022/11/16 00:03:44;;;;;;;0.50;0.50;;;9.60;99.90;;;;;;5115404;28;20464;-77
2022/11/16 00:06:13;;;;;;;1.23;0.83;;;9.60;99.90;;;;;;5115492;28;20484;-77
2022/11/16 00:08:41;;;;;;;0.40;0.40;;;9.60;99.90;;;;;;5116046;28;20446;-77
2022/11/16 00:11:10;;;;;;;2.57;0.63;;;9.60;99.90;;;;;;5115677;28;20440;-77
2022/11/16 00:13:38;;;;;;;4.20;0.70;;;9.60;99.90;;;;;;5115489;28;20483;-77
2022/11/16 00:16:07;;;;;;;2.40;0.67;;;9.50;99.90;;;;;;5115621;28;20444;-77
2022/11/16 00:18:34;;;;;;;0.47;0.40;;;9.50;99.90;;;;;;5115113;28;20483;-77
2022/11/16 00:21:05;;;;;;;0.50;0.40;;;9.40;99.90;;;;;;5115375;28;20855;-77
2022/11/16 00:23:32;;;;;;;1.13;0.90;;;9.30;99.90;;;;;;5115649;28;20861;-77
2022/11/16 00:26:03;;;;;;;0.53;0.53;;;9.30;99.90;;;;;;5115406;28;20447;-77
2022/11/16 00:28:30;;;;;;;1.33;0.60;;;9.30;99.90;;;;;;5115418;28;20436;-77
2022/11/16 00:31:00;;;;;;;0.50;0.50;;;9.30;99.90;;;;;;5115024;28;20965;-77
2022/11/16 00:33:28;;;;;;;0.50;0.50;;;9.30;99.90;;;;;;5115110;28;20511;-77
2022/11/16 00:35:55;;;;;;;0.80;0.47;;;9.30;99.90;;;;;;5114946;28;20933;-77
2022/11/16 00:38:22;;;;;;;1.00;1.00;;;9.30;99.90;;;;;;5115191;28;20454;-76
2022/11/16 00:40:50;;;;;;;2.50;0.80;;;9.20;99.90;;;;;;5115156;28;20742;-78
2022/11/16 00:43:16;;;;;;;0.80;0.53;;;9.20;99.90;;;;;;5114654;28;20874;-77
2022/11/16 00:45:43;;;;;;;0.60;0.60;;;9.20;99.90;;;;;;5114749;28;20942;-79
2022/11/16 00:48:11;;;;;;;0.50;0.50;;;9.20;99.90;;;;;;5114714;28;20969;-79
2022/11/16 00:50:39;;;;;;;0.67;0.50;;;9.20;99.90;;;;;;5114909;28;20448;-77
2022/11/16 00:53:07;;;;;;;0.83;0.70;;;9.10;99.90;;;;;;5114739;28;20499;-77
2022/11/16 00:55:34;;;;;;;0.73;0.40;;;9.20;99.90;;;;;;5114855;28;20470;-76
2022/11/16 00:58:00;;;;;;;0.70;0.70;;;9.10;99.90;;;;;;5114466;28;20447;-77
2022/11/16 01:00:27;;;;;;;1.90;0.90;;;9.10;99.90;;;;;;5114988;28;20444;-77
2022/11/16 01:02:54;;;;;;;0.70;0.50;;;9.00;99.90;;;;;;5114601;28;20455;-77
2022/11/16 01:05:21;;;;;;;0.93;0.93;;;9.00;99.90;;;;;;5114613;28;20950;-77
2022/11/16 01:07:50;;;;;;;0.70;0.70;;;9.00;99.90;;;;;;5115150;28;20450;-77
2022/11/16 01:10:19;;;;;;;0.63;0.63;;;9.00;99.90;;;;;;5114193;28;20459;-77
2022/11/16 01:12:46;;;;;;;0.40;0.30;;;9.00;99.90;;;;;;5114378;28;20495;-77
2022/11/16 01:15:13;;;;;;;0.43;0.43;;;8.90;99.90;;;;;;5114088;28;20812;-76
2022/11/16 01:17:41;;;;;;;0.60;0.50;;;8.90;99.90;;;;;;5114216;28;20479;-76
2022/11/16 01:20:11;;;;;;;1.97;0.67;;;8.90;99.90;;;;;;5114347;28;20447;-76
2022/11/16 01:22:39;;;;;;;1.70;1.60;;;8.90;99.90;;;;;;5114288;28;20420;-76
2022/11/16 01:25:09;;;;;;;0.63;0.60;;;9.00;99.90;;;;;;5114273;28;20443;-76
2022/11/16 01:27:36;;;;;;;0.90;0.70;;;8.90;99.90;;;;;;5114254;28;20822;-76
2022/11/16 01:30:03;;;;;;;1.90;0.40;;;9.00;99.90;;;;;;5114207;28;20450;-76
2022/11/16 01:32:30;;;;;;;0.40;0.30;;;9.00;99.90;;;;;;5113837;28;20934;-76
2022/11/16 01:34:57;;;;;;;0.60;0.60;;;9.00;99.90;;;;;;5113816;28;20939;-76
2022/11/16 01:37:23;;;;;;;0.90;0.80;;;9.00;99.90;;;;;;5113999;28;20951;-76
2022/11/16 01:39:51;;;;;;;0.40;0.40;;;9.00;99.90;;;;;;5114070;28;20440;-76
2022/11/16 01:42:20;;;;;;;0.83;0.50;;;9.10;99.90;;;;;;5113686;28;20444;-76
2022/11/16 01:45:02;;;;;;;0.50;0.47;;;9.10;99.90;;;;;;5113720;28;20446;-76
2022/11/16 01:47:29;;;;;;;1.27;0.40;;;9.10;99.90;;;;;;5113931;28;20953;-77
2022/11/16 01:50:01;;;;;;;0.30;0.30;;;9.20;99.90;;;;;;5113641;28;20795;-77
2022/11/16 01:52:31;;;;;;;0.40;0.30;;;9.20;99.90;;;;;;5113873;28;20439;-76
2022/11/16 01:54:58;;;;;;;0.30;0.30;;;9.20;99.90;;;;;;5113759;28;20943;-76
2022/11/16 01:57:31;;;;;;;0.30;0.30;;;9.30;99.90;;;;;;5113833;28;20450;-76
2022/11/16 02:00:00;;;;;;;0.40;0.40;;;9.30;99.90;;;;;;5113912;28;20481;-76
2022/11/16 02:02:26;;;;;;;0.80;0.80;;;9.30;99.90;;;;;;5113373;28;20444;-76
2022/11/16 02:04:54;;;;;;;0.40;0.40;;;9.40;99.90;;;;;;5114019;28;20446;-76
2022/11/16 02:09:52;;;;;;;0.37;0.37;;;9.40;99.90;;;;;;5113431;28;20813;-77
2022/11/16 02:10:31;;;;;;;0.40;0.30;;;9.40;99.90;;;;;;5113289;28;20497;-79
2022/11/16 02:13:11;;;;;;;0.50;0.50;;;9.50;99.90;;;;;;5113265;28;20510;-79
2022/11/16 02:15:43;;;;;;;0.70;0.50;;;9.50;99.90;;;;;;5113696;28;20446;-79
2022/11/16 02:18:20;;;;;;;0.30;0.30;;;9.40;99.90;;;;;;5113537;28;20483;-77
2022/11/16 02:21:03;;;;;;;0.43;0.40;;;9.40;99.90;;;;;;5113386;28;20894;-77
2022/11/16 02:24:04;;;;;;;0.50;0.50;;;9.40;99.90;;;;;;5117579;28;20469;-77
2022/11/16 02:26:53;;;;;;;0.57;0.50;;;9.40;99.90;;;;;;5117745;28;20439;-77
2022/11/16 02:29:27;;;;;;;0.83;0.40;;;9.30;99.90;;;;;;5083871;28;20455;-77
2022/11/16 02:32:01;;;;;;;0.80;0.70;;;9.30;99.90;;;;;;5117740;28;20767;-76
2022/11/16 02:34:32;;;;;;;0.40;0.40;;;9.30;99.90;;;;;;5117490;28;20483;-76
2022/11/16 02:37:01;;;;;;;0.40;0.40;;;9.30;99.90;;;;;;5117593;28;20435;-76
2022/11/16 02:39:31;;;;;;;2.93;0.40;;;9.30;99.90;;;;;;5117485;28;20451;-76
2022/11/16 02:41:59;;;;;;;0.50;0.50;;;9.30;99.90;;;;;;5117462;28;20451;-77
2022/11/16 02:44:31;;;;;;;0.77;0.30;;;9.30;99.90;;;;;;5117071;28;20546;-79
2022/11/16 02:47:02;;;;;;;0.70;0.70;;;9.40;99.90;;;;;;5117415;28;20435;-79
2022/11/16 02:49:31;;;;;;;1.07;0.73;;;9.30;99.90;;;;;;5117536;28;20435;-79
2022/11/16 02:51:59;;;;;;;0.50;0.50;;;9.40;99.90;;;;;;5116970;28;20942;-79
2022/11/16 02:54:26;;;;;;;0.50;0.40;;;9.40;99.90;;;;;;5117103;28;20481;-79
2022/11/16 02:56:56;;;;;;;0.30;0.30;;;9.30;99.90;;;;;;5117158;28;20450;-79
2022/11/16 02:59:27;;;;;;;0.50;0.30;;;9.30;99.90;;;;;;5117155;28;20439;-79
2022/11/16 03:02:04;;;;;;;0.63;0.40;;;9.30;99.90;;;;;;5117107;28;20479;-79
2022/11/16 03:04:36;;;;;;;0.93;0.30;;;9.30;99.90;;;;;;5116967;28;20466;-79
2022/11/16 03:07:07;;;;;;;0.50;0.47;;;9.40;99.90;;;;;;5117054;28;20435;-79
2022/11/16 03:09:37;;;;;;;0.40;0.40;;;9.40;99.90;;;;;;5116648;28;20899;-79
2022/11/16 03:12:08;;;;;;;0.60;0.50;;;9.40;99.90;;;;;;5117709;28;20436;-76
2022/11/16 03:14:38;;;;;;;0.30;0.20;;;9.50;99.90;;;;;;5116703;28;20483;-76
2022/11/16 03:17:09;;;;;;;0.40;0.30;;;9.50;99.90;;;;;;5116608;28;20428;-76
2022/11/16 03:19:41;;;;;;;0.40;0.30;;;9.50;99.90;;;;;;5116448;28;20463;-75
2022/11/16 03:22:14;;;;;;;2.00;0.63;;;9.40;99.90;;;;;;5116746;28;20432;-75
2022/11/16 03:24:41;;;;;;;1.40;0.30;;;9.40;99.90;;;;;;5116589;27;20474;-75
2022/11/16 03:27:18;;;;;;;0.40;0.40;;;9.50;99.90;;;;;;5116592;28;20448;-76
2022/11/16 03:29:55;;;;;;;0.53;0.53;;;9.50;99.90;;;;;;5116590;28;20431;-76
2022/11/16 03:32:29;;;;;;;0.57;0.30;;;9.50;99.90;;;;;;5116223;28;20427;-76
2022/11/16 03:35:00;;;;;;;0.37;0.33;;;9.50;99.90;;;;;;5116051;28;20459;-76
2022/11/16 03:37:27;;;;;;;0.70;0.37;;;9.50;99.90;;;;;;5116405;28;20427;-76
2022/11/16 03:39:56;;;;;;;0.50;0.50;;;9.50;99.90;;;;;;5116033;28;20446;-76
2022/11/16 03:42:25;;;;;;;0.50;0.50;;;9.50;99.90;;;;;;5115840;28;20447;-76
2022/11/16 03:44:53;;;;;;;0.40;0.30;;;9.60;99.90;;;;;;5116233;28;20440;-75
2022/11/16 03:47:20;;;;;;;0.40;0.30;;;9.50;99.90;;;;;;5116409;28;20439;-76
2022/11/16 03:49:48;;;;;;;0.70;0.40;;;9.50;99.90;;;;;;5115791;28;20935;-76
2022/11/16 03:52:16;;;;;;;0.40;0.37;;;9.50;99.90;;;;;;5116058;28;20444;-76
2022/11/16 03:54:43;;;;;;;0.80;0.67;;;9.50;99.90;;;;;;5115874;28;20487;-76
2022/11/16 03:57:14;;;;;;;0.40;0.30;;;9.50;99.90;;;;;;5115953;28;20440;-76
2022/11/16 03:59:42;;;;;;;0.40;0.30;;;9.50;99.90;;;;;;5115983;28;20443;-78
2022/11/16 04:02:08;;;;;;;0.43;0.43;;;9.50;99.90;;;;;;5115916;28;20436;-75
2022/11/16 04:29:13;;;;;;;0.30;0.20;;;9.50;99.90;;;;;;5114841;28;20853;-75
2022/11/16 04:39:57;;;;;;;1.30;0.40;;;9.70;99.90;;;;;;5115284;28;20438;-75
2022/11/16 04:42:23;;;;;;;0.40;0.30;;;9.70;99.90;;;;;;5115262;28;20443;-75
2022/11/16 04:47:34;;;;;;;0.50;0.50;;;9.70;99.90;;;;;;5115125;28;20403;-75
2022/11/16 04:50:01;;;;;;;0.90;0.63;;;9.70;99.90;;;;;;5114876;28;20950;-75
2022/11/16 04:52:27;;;;;;;0.80;0.40;;;9.60;99.90;;;;;;5114853;28;20439;-75
2022/11/16 04:54:54;;;;;;;0.50;0.50;;;9.60;99.90;;;;;;5114835;28;20479;-75
2022/11/16 04:57:22;;;;;;;1.60;0.90;;;9.60;99.90;;;;;;5114776;28;20450;-75
2022/11/16 04:59:49;;;;;;;0.40;0.37;;;9.60;99.90;;;;;;5114716;28;20443;-75
2022/11/16 05:02:16;;;;;;;0.30;0.30;;;9.60;99.90;;;;;;5114403;28;20841;-75
2022/11/16 05:04:44;;;;;;;0.30;0.30;;;9.60;99.90;;;;;;5114537;28;20550;-75
2022/11/16 05:07:13;;;;;;;1.60;0.73;;;9.60;99.90;;;;;;5114600;28;20453;-75
2022/11/16 05:09:42;;;;;;;0.50;0.50;;;9.50;99.90;;;;;;5114863;28;20450;-75
2022/11/16 05:12:09;;;;;;;0.50;0.50;;;9.50;99.90;;;;;;5114497;28;20457;-75
2022/11/16 05:14:37;;;;;;;0.77;0.40;;;9.40;99.90;;;;;;5114030;28;20883;-75
2022/11/16 05:17:04;;;;;;;0.50;0.40;;;9.40;99.90;;;;;;5114242;28;20465;-75
2022/11/16 05:22:15;;;;;;;0.30;0.30;;;9.40;99.90;;;;;;5114746;28;20400;-75
2022/11/16 05:24:41;;;;;;;0.40;0.30;;;9.40;99.90;;;;;;5114260;28;20467;-74
2022/11/16 05:27:10;;;;;;;0.50;0.50;;;9.40;99.90;;;;;;5114240;28;20965;-75
2022/11/16 05:29:39;;;;;;;0.93;0.67;;;9.40;99.90;;;;;;5114231;28;20205;-75
2022/11/16 05:32:07;;;;;;;1.93;0.47;;;9.40;99.90;;;;;;5114221;28;20448;-75
2022/11/16 05:34:34;;;;;;;0.97;0.50;;;9.40;99.90;;;;;;5113684;28;20475;-75
2022/11/16 05:37:01;;;;;;;0.50;0.30;;;9.40;99.90;;;;;;5114201;28;20443;-75
2022/11/16 05:39:28;;;;;;;0.30;0.30;;;9.40;99.90;;;;;;5114118;28;20447;-75
2022/11/16 05:41:55;;;;;;;0.73;0.37;;;9.40;99.90;;;;;;5113746;28;20815;-75
2022/11/16 05:44:23;;;;;;;1.43;0.70;;;9.30;99.90;;;;;;5113899;28;20982;-75
2022/11/16 05:46:52;;;;;;;0.40;0.33;;;9.30;99.90;;;;;;5113995;28;20446;-75
2022/11/16 05:49:19;;;;;;;0.67;0.60;;;9.30;99.90;;;;;;5113652;28;20496;-75
2022/11/16 05:51:47;;;;;;;0.43;0.40;;;9.30;99.90;;;;;;5113579;28;20447;-75
2022/11/16 05:54:17;;;;;;;0.30;0.30;;;9.30;99.90;;;;;;5113733;28;20541;-75
2022/11/16 05:56:44;;;;;;;0.30;0.30;;;9.40;99.90;;;;;;5113750;28;20530;-75
2022/11/16 05:59:12;;;;;;;0.63;0.40;;;9.30;99.90;;;;;;5113498;28;20962;-75
2022/11/16 06:01:39;;;;;;;0.40;0.40;;;9.30;99.90;;;;;;5113502;28;20443;-75
2022/11/16 06:04:07;;;;;;;0.30;0.30;;;9.30;99.90;;;;;;5113363;28;21001;-75
2022/11/16 06:06:34;;;;;;;0.37;0.37;;;9.30;99.90;;;;;;5113770;28;20448;-75
2022/11/16 06:09:01;;;;;;;1.37;0.40;;;9.40;99.90;;;;;;5113720;28;20439;-75
2022/11/16 06:11:28;;;;;;;0.70;0.50;;;9.40;99.90;;;;;;5113747;28;20448;-75
2022/11/16 06:13:55;;;;;;;0.73;0.73;;;9.40;99.90;;;;;;5113494;28;20989;-75
2022/11/16 06:16:22;;;;;;;0.60;0.60;;;9.30;99.90;;;;;;5113670;28;20478;-75
2022/11/16 06:18:48;;;;;;;0.30;0.30;;;9.30;99.90;;;;;;5113297;28;20588;-75
2022/11/16 06:21:18;;;;;;;0.60;0.60;;;9.30;99.90;;;;;;5113355;28;20957;-74
2022/11/16 06:23:45;;;;;;;0.40;0.33;;;9.30;99.90;;;;;;5114043;28;20966;-75
2022/11/16 06:26:13;;;;;;;0.60;0.60;;;9.40;99.90;;;;;;5113614;28;20448;-75
2022/11/16 06:28:40;;;;;;;0.40;0.30;;;9.40;99.90;;;;;;5113490;28;20436;-75
2022/11/16 06:31:06;;;;;;;0.40;0.33;;;9.40;99.90;;;;;;5113499;28;20468;-75
2022/11/16 06:33:33;;;;;;;0.40;0.40;;;9.40;99.90;;;;;;5113093;28;20990;-75
2022/11/16 06:36:00;;;;;;;2.20;0.40;;;9.40;99.90;;;;;;5113385;28;20855;-75
2022/11/16 06:38:29;;;;;;;0.40;0.30;;;9.40;99.90;;;;;;5113483;28;20448;-75
2022/11/16 06:40:57;;;;;;;0.30;0.30;;;9.40;99.90;;;;;;5113454;28;20447;-75
2022/11/16 06:43:25;;;;;;;0.60;0.30;;;9.40;99.90;;;;;;5113344;28;20463;-75
2022/11/16 06:45:53;;;;;;;0.40;0.30;;;9.40;99.90;;;;;;5113406;28;20447;-75
2022/11/16 06:48:21;;;;;;;0.93;0.40;;;9.50;99.90;;;;;;5113382;28;20465;-75
2022/11/16 06:50:49;;;;;;;0.30;0.30;;;9.50;99.90;;;;;;5113061;28;20950;-75
2022/11/16 06:53:16;;;;;;;0.50;0.30;;;9.50;99.90;;;;;;5113266;28;20459;-75
2022/11/16 06:55:44;;;;;;;0.30;0.30;;;9.50;99.90;;;;;;5113253;28;20475;-75
2022/11/16 06:58:11;;;;;;;0.30;0.30;;;9.50;99.90;;;;;;5113292;28;20443;-75
2022/11/16 07:00:38;;;;;;;0.93;0.40;;;9.50;99.90;;;;;;5112975;28;20452;-75
2022/11/16 07:03:05;;;;;;;0.30;0.30;;;9.50;99.90;;;;;;5113133;28;20464;-75
2022/11/16 07:05:32;;;;;;;0.63;0.40;;;9.50;99.90;;;;;;5113219;28;20439;-75
2022/11/16 07:07:59;;;;;;;0.50;0.30;;;9.60;99.90;;;;;;5114414;28;20467;-75
2022/11/16 07:10:26;;;;;;;0.40;0.30;;;9.60;99.90;;;;;;5116641;28;20500;-75
2022/11/16 07:12:54;;;;;;;0.57;0.57;;;9.60;99.90;;;;;;5116789;28;20471;-75
2022/11/16 07:15:21;;;;;;;1.23;1.23;;;9.60;99.90;;;;;;5116682;28;20481;-75
2022/11/16 07:17:48;;;;;;;1.47;0.50;;;9.50;99.90;;;;;;5117095;28;20486;-75
2022/11/16 07:20:15;;;;;;;0.30;0.20;;;9.60;99.90;;;;;;5116706;28;20451;-75
2022/11/16 07:22:42;;;;;;;2.57;0.50;;;9.50;99.90;;;;;;5116649;28;20471;-75
2022/11/16 07:25:09;;;;;;;0.40;0.30;;;9.50;99.90;;;;;;5116340;28;20957;-75
2022/11/16 07:27:36;;;;;;;0.40;0.40;;;9.50;99.90;;;;;;5116643;28;20449;-75
2022/11/16 07:30:05;;;;;;;0.40;0.37;;;9.50;99.90;;;;;;5116226;28;20454;-75
2022/11/16 07:32:31;;;;;;;0.30;0.30;;;9.60;99.90;;;;;;5116400;28;20451;-75
2022/11/16 07:34:58;;;;;;;0.50;0.30;;;9.60;99.90;;;;;;5116353;28;20483;-75
2022/11/16 07:37:25;;;;;;;0.30;0.30;;;9.70;99.90;;;;;;5116094;28;20977;-75
2022/11/16 07:39:52;;;;;;;1.43;0.40;;;9.80;99.90;;;;;;5116291;28;20455;-75
2022/11/16 07:42:18;;;;;;;0.40;0.40;;;9.90;99.90;;;;;;5116260;28;20447;-75
2022/11/16 07:44:45;;;;;;;0.30;0.20;;;9.90;99.90;;;;;;5116131;28;20459;-75
2022/11/16 07:47:13;;;;;;;0.30;0.20;;;10.00;99.90;;;;;;5116222;28;20486;-75
2022/11/16 07:49:40;;;;;;;0.43;0.43;;;10.00;99.90;;;;;;5116104;28;20454;-75
2022/11/16 07:52:08;;;;;;;8.63;0.43;;;10.10;99.90;;;;;;5115952;28;20459;-75
2022/11/16 07:54:35;;;;;;;0.30;0.30;;;10.10;99.90;;;;;;5115555;28;20986;-75
2022/11/16 07:57:01;;;;;;;0.50;0.50;;;10.20;99.90;;;;;;5116336;28;20518;-75
2022/11/16 07:59:28;;;;;;;0.50;0.40;;;10.30;99.90;;;;;;5115694;28;20449;-75
2022/11/16 08:01:55;;;;;;;0.30;0.27;;;10.40;99.90;;;;;;5116216;28;20551;-75
2022/11/16 08:04:24;;;;;;;0.60;0.30;;;10.50;99.90;;;;;;5115848;28;20463;-75
2022/11/16 08:06:50;;;;;;;0.30;0.30;;;10.60;99.90;;;;;;5115525;28;20935;-75
2022/11/16 08:09:17;;;;;;;0.30;0.30;;;10.60;99.90;;;;;;5115484;28;20448;-75
2022/11/16 08:11:44;;;;;;;0.30;0.30;;;10.60;99.90;;;;;;5115437;28;20964;-75
2022/11/16 08:14:11;;;;;;;0.60;0.30;;;10.60;99.90;;;;;;5115558;28;20470;-75
2022/11/16 08:16:38;;;;;;;0.50;0.50;;;10.60;99.90;;;;;;5115607;28;20447;-75
2022/11/16 08:19:05;;;;;;;0.30;0.30;;;10.60;99.90;;;;;;5114183;28;20480;-75
2022/11/16 08:21:33;;;;;;;0.30;0.30;;;10.60;99.90;;;;;;5115419;28;20444;-75
2022/11/16 08:24:00;;;;;;;0.60;0.60;;;10.50;99.90;;;;;;5115090;28;21012;-75
2022/11/16 08:26:27;;;;;;;0.30;0.30;;;10.60;99.90;;;;;;5115657;28;20455;-75
2022/11/16 08:28:55;;;;;;;0.40;0.30;;;10.60;99.90;;;;;;5115300;28;20451;-75
2022/11/16 08:31:24;;;;;;;0.40;0.30;;;10.60;99.90;;;;;;5114995;28;20447;-75
2022/11/16 08:33:51;;;;;;;0.30;0.30;;;10.60;99.90;;;;;;5115081;28;20883;-75
2022/11/16 08:36:19;;;;;;;0.30;0.30;;;10.70;99.90;;;;;;5115103;28;21017;-75
2022/11/16 08:38:48;;;;;;;0.30;0.20;;;10.70;99.90;;;;;;5115202;28;20444;-75
2022/11/16 08:41:16;;;;;;;0.30;0.30;;;10.60;99.90;;;;;;5115037;28;20456;-75
2022/11/16 08:43:45;;;;;;;1.43;0.70;;;10.70;99.90;;;;;;5114975;28;20554;-75
2022/11/16 08:46:12;;;;;;;0.30;0.20;;;10.60;99.90;;;;;;5114938;28;20539;-75
2022/11/16 08:48:39;;;;;;;0.60;0.33;;;10.60;99.90;;;;;;5114738;28;20980;-75
2022/11/16 08:51:08;;;;;;;0.30;0.23;;;10.60;99.90;;;;;;5114954;28;20443;-75
2022/11/16 08:53:34;;;;;;;0.30;0.30;;;10.60;99.90;;;;;;5114836;28;20459;-75
2022/11/16 08:56:07;;;;;;;0.30;0.30;;;10.60;99.90;;;;;;5114495;28;20566;-75
2022/11/16 08:58:34;;;;;;;0.40;0.30;;;10.60;99.90;;;;;;5114880;28;20496;-75
2022/11/16 09:01:08;;;;;;;0.30;0.20;;;10.60;99.90;;;;;;5114765;28;20452;-75
2022/11/16 09:03:35;;;;;;;0.30;0.30;;;11.20;99.90;;;;;;5114677;28;20578;-75
2022/11/16 09:06:02;;;;;;;0.30;0.30;;;12.90;99.90;;;;;;5114666;28;20444;-75
2022/11/16 09:08:29;;;;;;;0.40;0.27;;;15.00;99.90;;;;;;5114370;28;20504;-75
2022/11/16 09:10:56;;;;;;;0.40;0.30;;;16.30;99.90;;;;;;5114321;28;20794;-75
2022/11/16 09:13:25;;;;;;;0.30;0.23;;;16.30;99.90;;;;;;5114491;28;20521;-75
2022/11/16 09:15:57;;;;;;;0.30;0.30;;;16.20;99.90;;;;;;5114457;28;20475;-75
2022/11/16 09:18:24;;;;;;;3.03;0.40;;;15.80;99.90;;;;;;5114269;28;20483;-75
2022/11/16 09:20:51;;;;;;;0.30;0.30;;;15.20;99.90;;;;;;5114682;28;20443;-76
2022/11/16 09:23:17;;;;;;;0.90;0.30;;;14.70;99.90;;;;;;5114302;28;20460;-77
2022/11/16 09:25:47;;;;;;;0.50;0.30;;;14.00;99.90;;;;;;5114031;28;20443;-77
2022/11/16 09:28:14;;;;;;;0.40;0.30;;;13.50;99.90;;;;;;5114280;28;20466;-77
2022/11/16 09:30:42;;;;;;;0.40;0.30;;;13.10;99.90;;;;;;5113695;28;20828;-77
2022/11/16 09:33:10;;;;;;;0.40;0.30;;;12.80;99.90;;;;;;5113849;28;20986;-77
2022/11/16 09:35:37;;;;;;;0.40;0.37;;;12.60;99.90;;;;;;5114077;28;20483;-77
2022/11/16 09:38:03;;;;;;;0.40;0.30;;;12.50;99.90;;;;;;5113843;28;20935;-77
2022/11/16 09:40:33;;;;;;;1.00;0.40;;;12.30;99.90;;;;;;5113781;28;20939;-77
2022/11/16 09:43:11;;;;;;;0.30;0.30;;;12.30;99.90;;;;;;5114045;28;20503;-77
2022/11/16 09:45:47;;;;;;;0.30;0.30;;;12.30;99.90;;;;;;5113792;28;20809;-77
2022/11/16 09:48:16;;;;;;;0.30;0.20;;;12.20;99.90;;;;;;5114833;28;20488;-76
2022/11/16 09:50:47;;;;;;;1.10;0.47;;;12.20;99.90;;;;;;5113980;28;20470;-77
2022/11/16 09:53:24;;;;;;;0.30;0.20;;;12.30;99.90;;;;;;5114006;28;20463;-77
2022/11/16 09:55:52;;;;;;;0.30;0.20;;;12.30;99.90;;;;;;5113914;28;20474;-77
2022/11/16 09:58:24;;;;;;;0.30;0.30;;;12.30;99.90;;;;;;5113890;28;20444;-77
2022/11/16 10:00:56;;;;;;;0.30;0.30;;;12.20;99.90;;;;;;5114516;28;20430;-77
2022/11/16 10:03:25;;;;;;;0.30;0.20;;;12.20;99.90;;;;;;5113817;28;20482;-77
2022/11/16 10:05:57;;;;;;;0.30;0.30;;;12.10;99.90;;;;;;5113789;28;20435;-77
2022/11/16 10:08:32;;;;;;;0.40;0.37;;;12.10;99.90;;;;;;5113551;28;20880;-77
2022/11/16 10:11:14;;;;;;;0.63;0.40;;;12.10;99.90;;;;;;5114042;28;20895;-77
2022/11/16 10:13:52;;;;;;;0.30;0.20;;;12.10;99.90;;;;;;5113726;28;20475;-77
2022/11/16 10:16:30;;;;;;;0.30;0.20;;;12.10;99.90;;;;;;5113808;28;20475;-77
2022/11/16 10:19:02;;;;;;;0.30;0.20;;;12.00;99.90;;;;;;5113512;28;20489;-77
2022/11/16 10:21:41;;;;;;;0.30;0.30;;;12.00;99.90;;;;;;5113710;28;20427;-77
2022/11/16 10:24:25;;;;;;;0.30;0.30;;;11.90;99.90;;;;;;5113611;28;20499;-77
2022/11/16 10:27:03;;;;;;;0.40;0.30;;;11.90;99.90;;;;;;5113673;28;20428;-77
2022/11/16 10:29:45;;;;;;;0.40;0.30;;;11.80;99.90;;;;;;5113684;28;20489;-77
2022/11/16 10:32:24;;;;;;;0.40;0.30;;;11.80;99.90;;;;;;5113282;28;20466;-77
2022/11/16 10:34:54;;;;;;;0.97;0.97;;;11.70;99.90;;;;;;5113485;28;20530;-77
2022/11/16 10:37:22;;;;;;;0.83;0.40;;;11.70;99.90;;;;;;5113186;28;20810;-77
2022/11/16 10:39:51;;;;;;;0.87;0.37;;;11.70;99.90;;;;;;5113467;28;20443;-77
2022/11/16 10:42:22;;;;;;;0.30;0.30;;;11.70;99.90;;;;;;5113617;28;20455;-77
2022/11/16 10:44:55;;;;;;;0.30;0.30;;;11.60;99.90;;;;;;5117469;28;20823;-77
2022/11/16 10:47:28;;;;;;;0.30;0.30;;;11.60;99.90;;;;;;5118295;28;20431;-77
2022/11/16 10:49:59;;;;;;;0.30;0.30;;;11.60;99.90;;;;;;5117077;28;20934;-77
2022/11/16 10:52:25;;;;;;;0.40;0.40;;;11.60;99.90;;;;;;5117273;28;20428;-77
2022/11/16 10:54:52;;;;;;;0.40;0.40;;;11.70;99.90;;;;;;5117199;28;20466;-77
2022/11/16 10:57:22;;;;;;;0.50;0.30;;;11.70;99.90;;;;;;5117252;28;20438;-77
2022/11/16 10:59:52;;;;;;;0.30;0.20;;;11.80;99.90;;;;;;5117173;28;20448;-77
2022/11/16 11:02:33;;;;;;;0.40;0.40;;;11.70;99.90;;;;;;5117196;28;20809;-77
2022/11/16 11:05:19;;;;;;;0.30;0.30;;;11.70;99.90;;;;;;5117072;28;20451;-77
2022/11/16 11:07:49;;;;;;;0.30;0.27;;;11.70;99.90;;;;;;5117099;28;20446;-78
2022/11/16 11:10:26;;;;;;;0.40;0.30;;;11.70;99.90;;;;;;5116715;28;20903;-77
2022/11/16 11:13:03;;;;;;;0.30;0.30;;;11.70;99.90;;;;;;5116576;28;21065;-77
2022/11/16 11:15:30;;;;;;;0.40;0.30;;;11.80;99.90;;;;;;5116520;28;20966;-77
2022/11/16 11:18:29;;;;;;;0.30;0.20;;;11.80;99.90;;;;;;5116503;28;20849;-77
2022/11/16 11:21:09;;;;;;;0.40;0.30;;;11.80;99.90;;;;;;5116804;28;20443;-76
2022/11/16 11:23:43;;;;;;;0.30;0.30;;;11.90;99.90;;;;;;5116708;28;20467;-76
2022/11/16 11:26:29;;;;;;;0.30;0.30;;;12.00;99.90;;;;;;5116798;28;20428;-76
2022/11/16 11:28:57;;;;;;;0.40;0.40;;;12.10;99.90;;;;;;5116746;27;20427;-76
2022/11/16 11:31:29;;;;;;;0.70;0.30;;;12.40;99.90;;;;;;5116606;28;20440;-76
2022/11/16 11:34:04;;;;;;;0.30;0.30;;;12.60;99.90;;;;;;5116537;28;20471;-77
2022/11/16 11:36:35;;;;;;;0.50;0.30;;;12.90;99.90;;;;;;5116477;28;20493;-76
2022/11/16 11:39:05;;;;;;;0.30;0.30;;;13.20;99.90;;;;;;5116550;28;20919;-76
2022/11/16 11:41:35;;;;;;;0.30;0.20;;;13.40;99.90;;;;;;5116377;28;20525;-76
2022/11/16 11:44:03;;;;;;;0.30;0.30;;;13.50;99.90;;;;;;5116569;28;20471;-76
2022/11/16 11:46:36;;;;;;;0.30;0.30;;;13.50;99.90;;;;;;5116606;28;20444;-76
2022/11/16 11:49:13;;;;;;;0.30;0.30;;;13.50;99.90;;;;;;5116363;28;20528;-76
2022/11/16 11:51:42;;;;;;;0.30;0.30;;;13.50;99.90;;;;;;5116772;28;20431;-76
2022/11/16 11:54:17;;;;;;;0.30;0.30;;;13.50;99.90;;;;;;5115924;28;20459;-76
2022/11/16 11:56:44;;;;;;;0.30;0.30;;;13.50;99.90;;;;;;5115775;28;20463;-76
2022/11/16 11:59:18;;;;;;;0.37;0.30;;;13.70;99.90;;;;;;5116063;28;20452;-76
2022/11/16 12:02:09;;;;;;;0.30;0.27;;;13.80;99.90;;;;;;5116564;28;20778;-76
2022/11/16 12:05:06;;;;;;;0.30;0.20;;;13.70;99.90;;;;;;5115927;28;20881;-76
2022/11/16 12:07:51;;;;;;;0.30;0.30;;;13.70;99.90;;;;;;5115974;28;20798;-76
2022/11/16 12:10:25;;;;;;;0.30;0.30;;;13.80;99.90;;;;;;5116397;28;20455;-77
2022/11/16 12:13:05;;;;;;;0.40;0.30;;;13.60;99.90;;;;;;5115500;28;20807;-77
2022/11/16 12:15:42;;;;;;;0.40;0.30;;;13.60;99.90;;;;;;5115737;28;20424;-77
2022/11/16 12:18:29;;;;;;;0.40;0.27;;;13.70;99.90;;;;;;5115240;28;21018;-77
2022/11/16 12:21:04;;;;;;;1.70;0.30;;;13.80;99.90;;;;;;5116403;28;20448;-77
2022/11/16 12:23:52;;;;;;;0.93;0.30;;;13.80;99.90;;;;;;5115958;28;20616;-77
2022/11/16 12:26:26;;;;;;;0.30;0.30;;;13.70;99.90;;;;;;5115572;28;20428;-77
2022/11/16 12:29:06;;;;;;;0.30;0.20;;;13.50;99.90;;;;;;5115555;28;20790;-79
2022/11/16 12:32:04;;;;;;;0.30;0.20;;;13.30;99.90;;;;;;5115554;28;20588;-79
2022/11/16 12:34:44;;;;;;;0.40;0.30;;;13.20;99.90;;;;;;5115048;28;20464;-79
2022/11/16 12:37:19;;;;;;;0.30;0.30;;;13.10;99.90;;;;;;5115331;28;20470;-80
2022/11/16 12:39:58;;;;;;;0.30;0.20;;;12.90;99.90;;;;;;5115001;28;20779;-80
2022/11/16 12:42:34;;;;;;;0.30;0.30;;;12.80;99.90;;;;;;5115093;28;20428;-79
2022/11/16 12:45:39;;;;;;;0.40;0.30;;;12.70;99.90;;;;;;5115203;28;20440;-79
2022/11/16 12:48:48;;;;;;;0.40;0.30;;;12.60;99.90;;;;;;5080751;28;20443;-79
2022/11/16 12:51:28;;;;;;;0.30;0.23;;;12.40;99.90;;;;;;5052072;28;20438;-79
2022/11/16 12:54:13;;;;;;;0.40;0.40;;;12.40;99.90;;;;;;5051942;28;20847;-80
2022/11/16 12:56:49;;;;;;;0.30;0.30;;;12.30;99.90;;;;;;5092894;28;20498;-79
2022/11/16 12:59:34;;;;;;;0.30;0.30;;;12.20;99.90;;;;;;5114939;28;20438;-77
2022/11/16 13:02:10;;;;;;;0.30;0.20;;;12.10;99.90;;;;;;5114623;28;20427;-80
2022/11/16 13:04:41;;;;;;;0.30;0.30;;;12.00;99.90;;;;;;5115042;28;20463;-80
2022/11/16 13:07:12;;;;;;;1.07;0.30;;;12.00;99.90;;;;;;5113868;28;20833;-80
2022/11/16 13:09:43;;;;;;;0.50;0.30;;;12.00;99.90;;;;;;5114677;28;20432;-80
2022/11/16 13:12:15;;;;;;;0.30;0.20;;;11.90;99.90;;;;;;5114692;28;20431;-77
2022/11/16 13:14:45;;;;;;;0.30;0.27;;;11.90;99.90;;;;;;5114253;28;20974;-77
2022/11/16 13:17:19;;;;;;;0.30;0.30;;;11.90;99.90;;;;;;5114343;28;20491;-78
2022/11/16 13:20:03;;;;;;;0.40;0.30;;;11.80;99.90;;;;;;5114212;28;20946;-78
2022/11/16 13:22:34;;;;;;;0.30;0.20;;;11.70;99.90;;;;;;5114451;28;20439;-77
2022/11/16 13:25:14;;;;;;;0.30;0.20;;;11.70;99.90;;;;;;5114668;28;20447;-77
2022/11/16 13:27:47;;;;;;;0.40;0.30;;;11.70;99.90;;;;;;5114566;28;20450;-77
2022/11/16 13:30:18;;;;;;;0.60;0.33;;;11.70;99.90;;;;;;5114379;28;20470;-77
2022/11/16 13:33:03;;;;;;;0.30;0.30;;;11.70;99.90;;;;;;5114274;28;20830;-79
2022/11/16 13:35:30;;;;;;;0.40;0.30;;;11.80;99.90;;;;;;5114406;28;20451;-79
2022/11/16 13:37:57;;;;;;;0.30;0.30;;;11.90;99.90;;;;;;5113817;28;20532;-79
2022/11/16 13:40:28;;;;;;;0.30;0.30;;;12.10;99.90;;;;;;5113864;28;20860;-79
2022/11/16 13:43:03;;;;;;;0.63;0.60;;;12.20;99.90;;;;;;5114106;28;20468;-79
2022/11/16 13:45:33;;;;;;;0.30;0.30;;;12.30;99.90;;;;;;5114845;28;20446;-79
2022/11/16 13:48:03;;;;;;;0.30;0.30;;;12.40;99.90;;;;;;5114120;28;20423;-79
2022/11/16 13:50:33;;;;;;;0.40;0.30;;;12.40;99.90;;;;;;5113970;28;20452;-80